sensor_id;sensor_type;location;lat;lon;timestamp;P1;durP1;ratioP1;P2;durP2;ratioP2
48795;SDS011;34607;48.520;-1.330;2024-03-22T08:55:20;12.30;;;10.48;;
48795;SDS011;34607;48.520;-1.330;2024-03-22T08:57:47;13.05;;;10.85;;
48795;SDS011;34607;48.520;-1.330;2024-03-22T09:00:14;14.52;;;10.65;;
48795;SDS011;34607;48.520;-1.330;2024-03-22T09:02:41;13.68;;;10.80;;
48795;SDS011;34607;48.520;-1.330;2024-03-22T09:05:07;15.63;;;12.25;;
48795;SDS011;34607;48.520;-1.330;2024-03-22T09:07:35;13.18;;;10.38;;
48795;SDS011;34607;48.520;-1.330;2024-03-22T09:10:01;15.05;;;11.13;;
48795;SDS011;34607;48.520;-1.330;2024-03-22T09:12:30;16.58;;;10.35;;
48795;SDS011;34607;48.520;-1.330;2024-03-22T09:14:56;13.13;;;9.88;;
48795;SDS011;34607;48.520;-1.330;2024-03-22T09:17:23;10.65;;;9.48;;
48795;SDS011;34607;48.520;-1.330;2024-03-22T09:19:49;12.80;;;10.98;;
48795;SDS011;34607;48.520;-1.330;2024-03-22T09:22:16;14.15;;;11.05;;
48795;SDS011;34607;48.520;-1.330;2024-03-22T09:24:42;15.88;;;11.35;;
48795;SDS011;34607;48.520;-1.330;2024-03-22T09:27:09;14.57;;;11.65;;
48795;SDS011;34607;48.520;-1.330;2024-03-22T09:29:37;14.18;;;10.90;;
48795;SDS011;34607;48.520;-1.330;2024-03-22T09:32:04;12.75;;;10.55;;
48795;SDS011;34607;48.520;-1.330;2024-03-22T09:34:30;12.40;;;10.40;;
48795;SDS011;34607;48.520;-1.330;2024-03-22T09:36:58;12.65;;;10.73;;
48795;SDS011;34607;48.520;-1.330;2024-03-22T09:39:24;12.13;;;10.82;;
48795;SDS011;34607;48.520;-1.330;2024-03-22T09:41:52;15.98;;;11.93;;
48795;SDS011;34607;48.520;-1.330;2024-03-22T09:44:22;13.25;;;10.30;;
48795;SDS011;34607;48.520;-1.330;2024-03-22T09:46:51;11.93;;;10.10;;
48795;SDS011;34607;48.520;-1.330;2024-03-22T09:49:19;11.73;;;10.52;;
48795;SDS011;34607;48.520;-1.330;2024-03-22T09:51:46;10.95;;;9.40;;
48795;SDS011;34607;48.520;-1.330;2024-03-22T09:54:14;12.02;;;9.48;;
48795;SDS011;34607;48.520;-1.330;2024-03-22T09:56:41;10.95;;;9.45;;
48795;SDS011;34607;48.520;-1.330;2024-03-22T09:59:09;12.10;;;10.10;;
48795;SDS011;34607;48.520;-1.330;2024-03-22T10:01:36;12.70;;;9.80;;
48795;SDS011;34607;48.520;-1.330;2024-03-22T10:04:05;11.70;;;10.50;;
48795;SDS011;34607;48.520;-1.330;2024-03-22T10:06:33;10.80;;;9.60;;
48795;SDS011;34607;48.520;-1.330;2024-03-22T10:08:59;11.82;;;9.90;;
48795;SDS011;34607;48.520;-1.330;2024-03-22T10:11:26;14.23;;;10.63;;
48795;SDS011;34607;48.520;-1.330;2024-03-22T10:13:53;12.10;;;10.90;;
48795;SDS011;34607;48.520;-1.330;2024-03-22T10:16:20;11.23;;;10.02;;
48795;SDS011;34607;48.520;-1.330;2024-03-22T10:18:47;11.20;;;10.10;;
48795;SDS011;34607;48.520;-1.330;2024-03-22T10:21:18;9.75;;;8.70;;
48795;SDS011;34607;48.520;-1.330;2024-03-22T10:23:44;12.32;;;10.13;;
48795;SDS011;34607;48.520;-1.330;2024-03-22T10:26:13;12.40;;;9.80;;
48795;SDS011;34607;48.520;-1.330;2024-03-22T10:28:44;14.90;;;10.90;;
48795;SDS011;34607;48.520;-1.330;2024-03-22T10:31:11;12.63;;;10.40;;
48795;SDS011;34607;48.520;-1.330;2024-03-22T10:33:38;12.55;;;10.95;;
48795;SDS011;34607;48.520;-1.330;2024-03-22T10:36:07;11.57;;;10.38;;
48795;SDS011;34607;48.520;-1.330;2024-03-22T10:38:34;13.05;;;11.50;;
48795;SDS011;34607;48.520;-1.330;2024-03-22T10:41:04;15.27;;;12.48;;
48795;SDS011;34607;48.520;-1.330;2024-03-22T10:43:31;12.45;;;10.57;;
48795;SDS011;34607;48.520;-1.330;2024-03-22T10:46:00;10.80;;;9.48;;
48795;SDS011;34607;48.520;-1.330;2024-03-22T10:48:29;12.77;;;9.75;;
48795;SDS011;34607;48.520;-1.330;2024-03-22T10:50:59;14.15;;;9.75;;
48795;SDS011;34607;48.520;-1.330;2024-03-22T10:53:27;11.60;;;10.40;;
48795;SDS011;34607;48.520;-1.330;2024-03-22T10:55:59;12.52;;;10.68;;
48795;SDS011;34607;48.520;-1.330;2024-03-22T10:58:27;12.10;;;10.98;;
48795;SDS011;34607;48.520;-1.330;2024-03-22T11:00:54;14.98;;;10.73;;
48795;SDS011;34607;48.520;-1.330;2024-03-22T11:03:21;10.30;;;9.20;;
48795;SDS011;34607;48.520;-1.330;2024-03-22T11:05:53;10.55;;;9.52;;
48795;SDS011;34607;48.520;-1.330;2024-03-22T11:08:23;11.45;;;9.90;;
48795;SDS011;34607;48.520;-1.330;2024-03-22T11:10:51;12.07;;;10.60;;
48795;SDS011;34607;48.520;-1.330;2024-03-22T11:13:19;12.55;;;10.75;;
48795;SDS011;34607;48.520;-1.330;2024-03-22T11:15:47;10.60;;;9.60;;
48795;SDS011;34607;48.520;-1.330;2024-03-22T11:18:13;9.50;;;8.52;;
48795;SDS011;34607;48.520;-1.330;2024-03-22T11:20:40;9.98;;;8.13;;
48795;SDS011;34607;48.520;-1.330;2024-03-22T11:23:07;9.90;;;8.65;;
48795;SDS011;34607;48.520;-1.330;2024-03-22T11:25:35;9.88;;;8.88;;
48795;SDS011;34607;48.520;-1.330;2024-03-22T11:28:01;11.93;;;8.45;;
48795;SDS011;34607;48.520;-1.330;2024-03-22T11:30:31;12.50;;;8.93;;
48795;SDS011;34607;48.520;-1.330;2024-03-22T11:32:59;10.35;;;8.70;;
48795;SDS011;34607;48.520;-1.330;2024-03-22T11:35:27;10.60;;;9.05;;
48795;SDS011;34607;48.520;-1.330;2024-03-22T11:37:53;10.15;;;9.15;;
48795;SDS011;34607;48.520;-1.330;2024-03-22T11:40:21;10.13;;;9.10;;
48795;SDS011;34607;48.520;-1.330;2024-03-22T11:42:49;9.35;;;8.45;;
48795;SDS011;34607;48.520;-1.330;2024-03-22T11:45:18;10.50;;;8.55;;
48795;SDS011;34607;48.520;-1.330;2024-03-22T11:47:46;10.90;;;9.05;;
48795;SDS011;34607;48.520;-1.330;2024-03-22T11:50:14;9.15;;;8.25;;
48795;SDS011;34607;48.520;-1.330;2024-03-22T11:52:41;8.05;;;7.25;;
48795;SDS011;34607;48.520;-1.330;2024-03-22T11:55:09;8.23;;;7.43;;
48795;SDS011;34607;48.520;-1.330;2024-03-22T11:57:36;8.48;;;7.63;;
48795;SDS011;34607;48.520;-1.330;2024-03-22T12:00:03;10.02;;;7.90;;
48795;SDS011;34607;48.520;-1.330;2024-03-22T12:02:40;8.75;;;7.82;;
48795;SDS011;34607;48.520;-1.330;2024-03-22T12:05:09;8.10;;;7.32;;
48795;SDS011;34607;48.520;-1.330;2024-03-22T12:07:36;7.95;;;7.18;;
48795;SDS011;34607;48.520;-1.330;2024-03-22T12:10:03;9.77;;;8.85;;
48795;SDS011;34607;48.520;-1.330;2024-03-22T12:12:30;8.68;;;7.78;;
48795;SDS011;34607;48.520;-1.330;2024-03-22T12:14:57;8.02;;;7.22;;
48795;SDS011;34607;48.520;-1.330;2024-03-22T12:17:23;7.80;;;7.15;;
48795;SDS011;34607;48.520;-1.330;2024-03-22T12:19:50;8.10;;;7.40;;
48795;SDS011;34607;48.520;-1.330;2024-03-22T12:22:17;9.30;;;8.45;;
48795;SDS011;34607;48.520;-1.330;2024-03-22T12:24:45;10.27;;;8.23;;
48795;SDS011;34607;48.520;-1.330;2024-03-22T12:27:12;9.27;;;7.55;;
48795;SDS011;34607;48.520;-1.330;2024-03-22T12:29:38;10.02;;;7.55;;
48795;SDS011;34607;48.520;-1.330;2024-03-22T12:32:06;8.50;;;7.68;;
48795;SDS011;34607;48.520;-1.330;2024-03-22T12:34:33;10.00;;;7.93;;
48795;SDS011;34607;48.520;-1.330;2024-03-22T12:37:00;9.43;;;7.63;;
48795;SDS011;34607;48.520;-1.330;2024-03-22T12:39:28;9.25;;;8.35;;
48795;SDS011;34607;48.520;-1.330;2024-03-22T12:41:55;8.98;;;7.85;;
48795;SDS011;34607;48.520;-1.330;2024-03-22T12:44:21;8.48;;;7.65;;
48795;SDS011;34607;48.520;-1.330;2024-03-22T12:46:48;8.25;;;7.45;;
48795;SDS011;34607;48.520;-1.330;2024-03-22T12:49:16;9.55;;;8.65;;
48795;SDS011;34607;48.520;-1.330;2024-03-22T12:51:44;8.27;;;7.47;;
48795;SDS011;34607;48.520;-1.330;2024-03-22T12:54:11;8.88;;;7.85;;
48795;SDS011;34607;48.520;-1.330;2024-03-22T12:56:41;9.52;;;8.02;;
48795;SDS011;34607;48.520;-1.330;2024-03-22T12:59:07;8.23;;;7.38;;
48795;SDS011;34607;48.520;-1.330;2024-03-22T13:01:34;8.82;;;7.88;;
48795;SDS011;34607;48.520;-1.330;2024-03-22T13:04:02;9.80;;;7.60;;
48795;SDS011;34607;48.520;-1.330;2024-03-22T13:06:29;8.23;;;7.22;;
48795;SDS011;34607;48.520;-1.330;2024-03-22T13:08:55;8.70;;;7.63;;
48795;SDS011;34607;48.520;-1.330;2024-03-22T13:11:22;8.23;;;7.50;;
48795;SDS011;34607;48.520;-1.330;2024-03-22T13:13:49;11.90;;;8.38;;
48795;SDS011;34607;48.520;-1.330;2024-03-22T13:16:17;8.75;;;7.82;;
48795;SDS011;34607;48.520;-1.330;2024-03-22T13:18:43;9.43;;;8.55;;
48795;SDS011;34607;48.520;-1.330;2024-03-22T13:21:10;8.88;;;7.90;;
48795;SDS011;34607;48.520;-1.330;2024-03-22T13:23:36;11.52;;;8.98;;
48795;SDS011;34607;48.520;-1.330;2024-03-22T13:26:03;9.20;;;8.38;;
48795;SDS011;34607;48.520;-1.330;2024-03-22T13:28:30;9.02;;;8.02;;
48795;SDS011;34607;48.520;-1.330;2024-03-22T13:31:02;8.10;;;7.30;;
48795;SDS011;34607;48.520;-1.330;2024-03-22T13:33:28;10.35;;;8.38;;
48795;SDS011;34607;48.520;-1.330;2024-03-22T13:35:56;9.43;;;8.50;;
48795;SDS011;34607;48.520;-1.330;2024-03-22T13:38:22;8.93;;;8.02;;
48795;SDS011;34607;48.520;-1.330;2024-03-22T13:40:53;10.18;;;8.65;;
48795;SDS011;34607;48.520;-1.330;2024-03-22T13:43:19;11.05;;;7.95;;
48795;SDS011;34607;48.520;-1.330;2024-03-22T13:45:48;8.25;;;7.38;;
48795;SDS011;34607;48.520;-1.330;2024-03-22T13:48:21;9.00;;;8.07;;
48795;SDS011;34607;48.520;-1.330;2024-03-22T13:50:52;8.43;;;7.53;;
48795;SDS011;34607;48.520;-1.330;2024-03-22T13:53:19;8.30;;;7.47;;
48795;SDS011;34607;48.520;-1.330;2024-03-22T13:55:47;8.18;;;7.30;;
48795;SDS011;34607;48.520;-1.330;2024-03-22T13:58:14;7.90;;;6.22;;
48795;SDS011;34607;48.520;-1.330;2024-03-22T14:00:41;10.10;;;8.95;;
48795;SDS011;34607;48.520;-1.330;2024-03-22T14:03:07;16.02;;;13.05;;
48795;SDS011;34607;48.520;-1.330;2024-03-22T14:05:36;17.48;;;13.35;;
48795;SDS011;34607;48.520;-1.330;2024-03-22T14:08:02;16.08;;;13.18;;
48795;SDS011;34607;48.520;-1.330;2024-03-22T14:10:29;11.18;;;8.82;;
48795;SDS011;34607;48.520;-1.330;2024-03-22T14:12:56;13.18;;;10.80;;
48795;SDS011;34607;48.520;-1.330;2024-03-22T14:15:24;11.35;;;9.38;;
48795;SDS011;34607;48.520;-1.330;2024-03-22T14:17:51;13.07;;;9.95;;
48795;SDS011;34607;48.520;-1.330;2024-03-22T14:20:19;11.45;;;9.55;;
48795;SDS011;34607;48.520;-1.330;2024-03-22T14:22:47;11.23;;;8.88;;
48795;SDS011;34607;48.520;-1.330;2024-03-22T14:25:14;10.48;;;7.90;;
48795;SDS011;34607;48.520;-1.330;2024-03-22T14:27:40;10.82;;;8.35;;
48795;SDS011;34607;48.520;-1.330;2024-03-22T14:30:11;9.35;;;7.50;;
48795;SDS011;34607;48.520;-1.330;2024-03-22T14:32:38;10.25;;;6.68;;
48795;SDS011;34607;48.520;-1.330;2024-03-22T14:35:07;9.07;;;7.22;;
48795;SDS011;34607;48.520;-1.330;2024-03-22T14:37:34;8.30;;;6.85;;
48795;SDS011;34607;48.520;-1.330;2024-03-22T14:40:03;7.70;;;6.90;;
48795;SDS011;34607;48.520;-1.330;2024-03-22T14:42:30;8.07;;;6.72;;
48795;SDS011;34607;48.520;-1.330;2024-03-22T14:44:57;11.40;;;7.93;;
48795;SDS011;34607;48.520;-1.330;2024-03-22T14:47:23;12.32;;;9.25;;
48795;SDS011;34607;48.520;-1.330;2024-03-22T14:49:50;18.35;;;15.10;;
48795;SDS011;34607;48.520;-1.330;2024-03-22T14:52:17;22.15;;;19.85;;
48795;SDS011;34607;48.520;-1.330;2024-03-22T14:54:44;14.25;;;11.65;;
48795;SDS011;34607;48.520;-1.330;2024-03-22T14:57:12;11.30;;;8.80;;
48795;SDS011;34607;48.520;-1.330;2024-03-22T14:59:39;12.25;;;9.38;;
48795;SDS011;34607;48.520;-1.330;2024-03-22T15:02:05;11.02;;;9.30;;
48795;SDS011;34607;48.520;-1.330;2024-03-22T15:04:34;12.35;;;9.75;;
48795;SDS011;34607;48.520;-1.330;2024-03-22T15:07:00;13.85;;;10.10;;
48795;SDS011;34607;48.520;-1.330;2024-03-22T15:09:27;15.68;;;10.73;;
48795;SDS011;34607;48.520;-1.330;2024-03-22T15:11:53;13.90;;;10.05;;
48795;SDS011;34607;48.520;-1.330;2024-03-22T15:14:25;11.52;;;9.38;;
48795;SDS011;34607;48.520;-1.330;2024-03-22T15:16:54;15.57;;;10.68;;
48795;SDS011;34607;48.520;-1.330;2024-03-22T15:19:21;16.05;;;11.20;;
48795;SDS011;34607;48.520;-1.330;2024-03-22T15:21:47;13.38;;;11.30;;
48795;SDS011;34607;48.520;-1.330;2024-03-22T15:24:14;13.82;;;9.57;;
48795;SDS011;34607;48.520;-1.330;2024-03-22T15:26:40;11.40;;;8.93;;
48795;SDS011;34607;48.520;-1.330;2024-03-22T15:29:07;10.80;;;7.28;;
48795;SDS011;34607;48.520;-1.330;2024-03-22T15:31:35;9.82;;;8.20;;
48795;SDS011;34607;48.520;-1.330;2024-03-22T15:34:02;8.93;;;8.02;;
48795;SDS011;34607;48.520;-1.330;2024-03-22T15:36:28;11.52;;;8.60;;
48795;SDS011;34607;48.520;-1.330;2024-03-22T15:38:55;12.73;;;9.52;;
48795;SDS011;34607;48.520;-1.330;2024-03-22T15:41:21;11.98;;;9.70;;
48795;SDS011;34607;48.520;-1.330;2024-03-22T15:43:48;11.65;;;9.23;;
48795;SDS011;34607;48.520;-1.330;2024-03-22T15:46:14;10.73;;;8.73;;
48795;SDS011;34607;48.520;-1.330;2024-03-22T15:48:43;11.15;;;9.65;;
48795;SDS011;34607;48.520;-1.330;2024-03-22T15:51:10;12.38;;;10.30;;
48795;SDS011;34607;48.520;-1.330;2024-03-22T15:53:36;12.50;;;10.43;;
48795;SDS011;34607;48.520;-1.330;2024-03-22T15:56:04;14.90;;;10.18;;
48795;SDS011;34607;48.520;-1.330;2024-03-22T15:58:30;11.95;;;9.32;;
48795;SDS011;34607;48.520;-1.330;2024-03-22T16:00:57;13.48;;;9.73;;
48795;SDS011;34607;48.520;-1.330;2024-03-22T16:03:23;13.50;;;10.13;;
48795;SDS011;34607;48.520;-1.330;2024-03-22T16:05:52;10.77;;;9.10;;
48795;SDS011;34607;48.520;-1.330;2024-03-22T16:08:18;3.58;;;3.25;;
48795;SDS011;34607;48.520;-1.330;2024-03-22T16:10:46;2.60;;;1.80;;
48795;SDS011;34607;48.520;-1.330;2024-03-22T16:13:13;1.00;;;0.80;;
48795;SDS011;34607;48.520;-1.330;2024-03-22T16:15:40;3.40;;;1.00;;
48795;SDS011;34607;48.520;-1.330;2024-03-22T16:18:10;2.80;;;1.90;;
48795;SDS011;34607;48.520;-1.330;2024-03-22T16:20:37;2.60;;;1.42;;
48795;SDS011;34607;48.520;-1.330;2024-03-22T16:23:05;1.60;;;1.20;;
48795;SDS011;34607;48.520;-1.330;2024-03-22T16:25:33;2.75;;;1.55;;
48795;SDS011;34607;48.520;-1.330;2024-03-22T16:28:00;4.18;;;2.17;;
48795;SDS011;34607;48.520;-1.330;2024-03-22T16:30:27;3.97;;;2.40;;
48795;SDS011;34607;48.520;-1.330;2024-03-22T16:32:53;1.75;;;1.02;;
48795;SDS011;34607;48.520;-1.330;2024-03-22T16:35:20;2.63;;;1.60;;
48795;SDS011;34607;48.520;-1.330;2024-03-22T16:37:46;2.83;;;1.60;;
48795;SDS011;34607;48.520;-1.330;2024-03-22T16:40:15;3.13;;;1.40;;
48795;SDS011;34607;48.520;-1.330;2024-03-22T16:42:44;6.32;;;2.28;;
48795;SDS011;34607;48.520;-1.330;2024-03-22T16:45:12;8.43;;;3.22;;
48795;SDS011;34607;48.520;-1.330;2024-03-22T16:47:39;8.80;;;3.50;;
48795;SDS011;34607;48.520;-1.330;2024-03-22T16:50:07;12.10;;;4.03;;
48795;SDS011;34607;48.520;-1.330;2024-03-22T16:52:35;10.60;;;3.50;;
48795;SDS011;34607;48.520;-1.330;2024-03-22T16:55:02;14.60;;;4.03;;
48795;SDS011;34607;48.520;-1.330;2024-03-22T16:57:31;17.25;;;5.38;;
48795;SDS011;34607;48.520;-1.330;2024-03-22T16:59:58;16.83;;;4.47;;
48795;SDS011;34607;48.520;-1.330;2024-03-22T17:02:24;21.30;;;4.43;;
48795;SDS011;34607;48.520;-1.330;2024-03-22T17:04:52;16.27;;;5.78;;
48795;SDS011;34607;48.520;-1.330;2024-03-22T17:07:18;19.15;;;6.63;;
48795;SDS011;34607;48.520;-1.330;2024-03-22T17:09:45;19.00;;;5.93;;
48795;SDS011;34607;48.520;-1.330;2024-03-22T17:12:11;17.60;;;4.45;;
48795;SDS011;34607;48.520;-1.330;2024-03-22T17:14:39;19.98;;;5.15;;
48795;SDS011;34607;48.520;-1.330;2024-03-22T17:17:06;15.25;;;5.05;;
48795;SDS011;34607;48.520;-1.330;2024-03-22T17:19:33;25.63;;;6.13;;
48795;SDS011;34607;48.520;-1.330;2024-03-22T17:21:59;15.10;;;4.72;;
48795;SDS011;34607;48.520;-1.330;2024-03-22T17:24:26;19.95;;;4.38;;
48795;SDS011;34607;48.520;-1.330;2024-03-22T17:26:52;15.68;;;4.40;;
48795;SDS011;34607;48.520;-1.330;2024-03-22T17:29:20;21.00;;;5.32;;
48795;SDS011;34607;48.520;-1.330;2024-03-22T17:31:48;17.60;;;4.53;;
48795;SDS011;34607;48.520;-1.330;2024-03-22T17:34:15;16.27;;;5.03;;
48795;SDS011;34607;48.520;-1.330;2024-03-22T17:36:41;15.43;;;4.47;;
48795;SDS011;34607;48.520;-1.330;2024-03-22T17:39:08;13.95;;;4.25;;
48795;SDS011;34607;48.520;-1.330;2024-03-22T17:41:35;19.25;;;4.18;;
48795;SDS011;34607;48.520;-1.330;2024-03-22T17:44:02;13.82;;;4.78;;
48795;SDS011;34607;48.520;-1.330;2024-03-22T17:46:28;18.83;;;4.32;;
48795;SDS011;34607;48.520;-1.330;2024-03-22T17:48:57;19.42;;;4.45;;
48795;SDS011;34607;48.520;-1.330;2024-03-22T17:51:23;20.88;;;4.30;;
48795;SDS011;34607;48.520;-1.330;2024-03-22T17:53:50;18.52;;;4.60;;
48795;SDS011;34607;48.520;-1.330;2024-03-22T17:56:17;10.65;;;3.67;;
48795;SDS011;34607;48.520;-1.330;2024-03-22T17:58:43;7.50;;;3.45;;
48795;SDS011;34607;48.520;-1.330;2024-03-22T18:01:10;10.40;;;2.80;;
48795;SDS011;34607;48.520;-1.330;2024-03-22T18:03:36;6.57;;;3.00;;
48795;SDS011;34607;48.520;-1.330;2024-03-22T18:06:05;7.15;;;2.67;;
48795;SDS011;34607;48.520;-1.330;2024-03-22T18:08:32;8.27;;;2.42;;
48795;SDS011;34607;48.520;-1.330;2024-03-22T18:10:59;9.20;;;2.85;;
48795;SDS011;34607;48.520;-1.330;2024-03-22T18:13:26;9.85;;;2.75;;
48795;SDS011;34607;48.520;-1.330;2024-03-22T18:15:53;11.63;;;3.40;;
48795;SDS011;34607;48.520;-1.330;2024-03-22T18:18:20;8.98;;;2.72;;
48795;SDS011;34607;48.520;-1.330;2024-03-22T18:20:47;10.68;;;2.78;;
48795;SDS011;34607;48.520;-1.330;2024-03-22T18:23:16;7.43;;;2.78;;
48795;SDS011;34607;48.520;-1.330;2024-03-22T18:25:43;14.60;;;3.45;;
48795;SDS011;34607;48.520;-1.330;2024-03-22T18:28:09;14.93;;;4.15;;
48795;SDS011;34607;48.520;-1.330;2024-03-22T18:30:36;13.85;;;3.25;;
48795;SDS011;34607;48.520;-1.330;2024-03-22T18:33:02;13.05;;;3.47;;
48795;SDS011;34607;48.520;-1.330;2024-03-22T18:35:30;11.63;;;2.97;;
48795;SDS011;34607;48.520;-1.330;2024-03-22T18:37:56;15.15;;;2.75;;
48795;SDS011;34607;48.520;-1.330;2024-03-22T18:40:24;12.07;;;3.53;;
48795;SDS011;34607;48.520;-1.330;2024-03-22T18:42:50;14.30;;;2.90;;
48795;SDS011;34607;48.520;-1.330;2024-03-22T18:45:17;16.05;;;3.72;;
48795;SDS011;34607;48.520;-1.330;2024-03-22T18:47:43;9.55;;;2.95;;
48795;SDS011;34607;48.520;-1.330;2024-03-22T18:50:11;11.27;;;3.38;;
48795;SDS011;34607;48.520;-1.330;2024-03-22T18:52:37;10.23;;;3.40;;
48795;SDS011;34607;48.520;-1.330;2024-03-22T18:55:04;17.38;;;3.35;;
48795;SDS011;34607;48.520;-1.330;2024-03-22T18:57:33;15.32;;;3.58;;
48795;SDS011;34607;48.520;-1.330;2024-03-22T19:00:00;15.30;;;3.88;;
48795;SDS011;34607;48.520;-1.330;2024-03-22T19:02:26;12.93;;;3.97;;
48795;SDS011;34607;48.520;-1.330;2024-03-22T19:04:54;14.88;;;3.60;;
48795;SDS011;34607;48.520;-1.330;2024-03-22T19:07:20;16.40;;;4.13;;
48795;SDS011;34607;48.520;-1.330;2024-03-22T19:09:47;19.17;;;3.88;;
48795;SDS011;34607;48.520;-1.330;2024-03-22T19:12:13;20.27;;;4.60;;
48795;SDS011;34607;48.520;-1.330;2024-03-22T19:14:46;20.50;;;5.32;;
48795;SDS011;34607;48.520;-1.330;2024-03-22T19:17:12;14.43;;;4.03;;
48795;SDS011;34607;48.520;-1.330;2024-03-22T19:19:39;17.13;;;4.65;;
48795;SDS011;34607;48.520;-1.330;2024-03-22T19:22:05;21.23;;;5.38;;
48795;SDS011;34607;48.520;-1.330;2024-03-22T19:24:32;27.92;;;6.25;;
48795;SDS011;34607;48.520;-1.330;2024-03-22T19:26:58;19.25;;;4.35;;
48795;SDS011;34607;48.520;-1.330;2024-03-22T19:29:25;21.65;;;5.13;;
48795;SDS011;34607;48.520;-1.330;2024-03-22T19:31:53;22.77;;;4.88;;
48795;SDS011;34607;48.520;-1.330;2024-03-22T19:34:20;15.45;;;4.25;;
48795;SDS011;34607;48.520;-1.330;2024-03-22T19:36:46;19.35;;;5.32;;
48795;SDS011;34607;48.520;-1.330;2024-03-22T19:39:13;22.67;;;5.13;;
48795;SDS011;34607;48.520;-1.330;2024-03-22T19:41:39;19.13;;;5.35;;
48795;SDS011;34607;48.520;-1.330;2024-03-22T19:44:06;26.23;;;6.78;;
48795;SDS011;34607;48.520;-1.330;2024-03-22T19:46:32;19.80;;;4.13;;
48795;SDS011;34607;48.520;-1.330;2024-03-22T19:49:01;17.80;;;4.40;;
48795;SDS011;34607;48.520;-1.330;2024-03-22T19:51:27;26.38;;;5.60;;
48795;SDS011;34607;48.520;-1.330;2024-03-22T19:53:54;20.50;;;5.32;;
48795;SDS011;34607;48.520;-1.330;2024-03-22T19:56:20;25.23;;;6.13;;
48795;SDS011;34607;48.520;-1.330;2024-03-22T19:58:48;27.60;;;5.95;;
48795;SDS011;34607;48.520;-1.330;2024-03-22T20:01:14;23.45;;;6.13;;
48795;SDS011;34607;48.520;-1.330;2024-03-22T20:03:42;24.15;;;5.07;;
48795;SDS011;34607;48.520;-1.330;2024-03-22T20:06:10;25.52;;;6.20;;
48795;SDS011;34607;48.520;-1.330;2024-03-22T20:08:37;29.40;;;5.18;;
48795;SDS011;34607;48.520;-1.330;2024-03-22T20:11:03;24.63;;;6.55;;
48795;SDS011;34607;48.520;-1.330;2024-03-22T20:13:30;29.70;;;5.93;;
48795;SDS011;34607;48.520;-1.330;2024-03-22T20:15:56;21.45;;;5.50;;
48795;SDS011;34607;48.520;-1.330;2024-03-22T20:18:23;23.73;;;5.85;;
48795;SDS011;34607;48.520;-1.330;2024-03-22T20:20:50;29.52;;;6.05;;
48795;SDS011;34607;48.520;-1.330;2024-03-22T20:23:18;24.85;;;6.30;;
48795;SDS011;34607;48.520;-1.330;2024-03-22T20:25:44;31.63;;;6.97;;
48795;SDS011;34607;48.520;-1.330;2024-03-22T20:28:12;23.13;;;6.53;;
48795;SDS011;34607;48.520;-1.330;2024-03-22T20:30:38;27.23;;;6.15;;
48795;SDS011;34607;48.520;-1.330;2024-03-22T20:33:05;30.85;;;7.60;;
48795;SDS011;34607;48.520;-1.330;2024-03-22T20:35:31;23.17;;;7.05;;
